createdAt,value
2018-12-18T00:01:25.772Z,4.06
2018-12-18T00:03:58.028Z,4.00
2018-12-18T00:06:30.326Z,3.98
2018-12-18T00:09:04.185Z,3.97
2018-12-18T00:11:36.443Z,3.91
2018-12-18T00:14:08.728Z,3.94
2018-12-18T00:16:40.993Z,3.91
2018-12-18T00:19:13.233Z,3.91
2018-12-18T00:21:45.490Z,3.93
2018-12-18T00:24:17.770Z,3.95
2018-12-18T00:26:50.033Z,3.95
2018-12-18T00:29:22.497Z,3.91
2018-12-18T00:31:54.752Z,3.95
2018-12-18T00:34:26.971Z,3.95
2018-12-18T00:36:59.227Z,3.85
2018-12-18T00:39:31.456Z,3.83
2018-12-18T00:42:03.725Z,3.79
2018-12-18T00:44:36.091Z,3.79
2018-12-18T00:47:08.341Z,3.78
2018-12-18T00:49:40.585Z,3.74
2018-12-18T00:52:12.833Z,3.74
2018-12-18T00:54:45.077Z,3.73
2018-12-18T00:57:17.324Z,3.83
2018-12-18T00:59:49.537Z,3.78
2018-12-18T01:02:21.769Z,3.68
2018-12-18T01:04:54.052Z,3.73
2018-12-18T01:07:26.316Z,3.77
2018-12-18T01:09:58.540Z,3.72
2018-12-18T01:12:30.772Z,3.70
2018-12-18T01:15:03.155Z,3.59
2018-12-18T01:17:35.404Z,3.62
2018-12-18T01:20:07.802Z,3.61
2018-12-18T01:22:40.148Z,3.63
2018-12-18T01:25:12.407Z,3.66
2018-12-18T01:27:44.676Z,3.68
2018-12-18T01:30:16.915Z,3.72
2018-12-18T01:32:49.183Z,3.68
2018-12-18T01:35:21.447Z,3.66
2018-12-18T01:37:53.657Z,3.61
2018-12-18T01:40:25.881Z,3.65
2018-12-18T01:42:58.110Z,3.61
2018-12-18T01:45:30.375Z,3.56
2018-12-18T01:48:02.616Z,3.56
2018-12-18T01:50:34.893Z,3.53
2018-12-18T01:53:07.108Z,3.46
2018-12-18T01:55:39.363Z,3.42
2018-12-18T01:58:11.564Z,3.33
2018-12-18T02:00:43.812Z,3.23
2018-12-18T02:03:16.059Z,3.13
2018-12-18T02:05:48.404Z,3.10
2018-12-18T02:08:20.851Z,2.96
2018-12-18T02:10:53.124Z,2.79
2018-12-18T02:13:25.347Z,2.87
2018-12-18T02:15:57.618Z,2.89
2018-12-18T02:18:29.840Z,2.86
2018-12-18T02:21:02.087Z,2.90
2018-12-18T02:23:34.541Z,3.06
2018-12-18T02:26:06.815Z,3.04
2018-12-18T02:28:39.049Z,2.99
2018-12-18T02:31:11.460Z,2.97
2018-12-18T02:33:43.711Z,2.94
2018-12-18T02:36:15.943Z,2.97
2018-12-18T02:38:48.163Z,2.96
2018-12-18T02:41:20.405Z,3.00
2018-12-18T02:43:52.599Z,3.04
2018-12-18T02:46:24.859Z,3.01
2018-12-18T02:48:57.089Z,3.07
2018-12-18T02:51:29.331Z,3.03
2018-12-18T02:54:01.639Z,3.02
2018-12-18T02:56:33.893Z,3.02
2018-12-18T02:59:06.121Z,2.96
2018-12-18T03:01:38.360Z,2.89
2018-12-18T03:04:10.568Z,2.89
2018-12-18T03:06:42.811Z,2.81
2018-12-18T03:09:15.040Z,2.71
2018-12-18T03:11:47.338Z,2.72
2018-12-18T03:14:19.681Z,2.70
2018-12-18T03:16:51.938Z,2.69
2018-12-18T03:19:24.156Z,2.64
2018-12-18T03:21:56.511Z,2.64
2018-12-18T03:24:28.789Z,2.60
2018-12-18T03:27:01.028Z,2.58
2018-12-18T03:29:33.273Z,2.55
2018-12-18T03:32:10.264Z,2.52
2018-12-18T03:34:42.541Z,2.48
2018-12-18T03:37:14.770Z,2.50
2018-12-18T03:39:47.029Z,2.45
2018-12-18T03:42:19.257Z,2.47
2018-12-18T03:44:51.532Z,2.45
2018-12-18T03:47:23.757Z,2.39
2018-12-18T03:49:56.096Z,2.36
2018-12-18T03:52:35.113Z,2.35
2018-12-18T03:55:07.390Z,2.32
2018-12-18T03:57:39.623Z,2.25
2018-12-18T04:00:11.899Z,2.27
2018-12-18T04:02:44.219Z,2.25
2018-12-18T04:05:16.657Z,2.28
2018-12-18T04:07:48.910Z,2.28
2018-12-18T04:10:21.143Z,2.29
2018-12-18T04:12:53.434Z,2.32
2018-12-18T04:15:25.676Z,2.28
2018-12-18T04:17:57.889Z,2.28
2018-12-18T04:20:30.175Z,2.25
2018-12-18T04:23:02.422Z,2.28
2018-12-18T04:25:34.788Z,2.31
2018-12-18T04:28:07.053Z,2.28
2018-12-18T04:30:39.318Z,2.29
2018-12-18T04:33:11.524Z,2.29
2018-12-18T04:35:43.762Z,2.31
2018-12-18T04:38:15.970Z,2.19
2018-12-18T04:40:48.183Z,2.09
2018-12-18T04:43:20.428Z,1.99
2018-12-18T04:45:52.664Z,1.95
2018-12-18T04:48:24.879Z,1.93
2018-12-18T04:50:58.120Z,1.92
2018-12-18T04:53:30.353Z,1.90
2018-12-18T04:56:02.720Z,2.02
2018-12-18T04:58:34.930Z,1.65
2018-12-18T05:01:07.210Z,1.42
2018-12-18T05:03:39.407Z,1.42
2018-12-18T05:06:11.652Z,1.37
2018-12-18T05:08:44.009Z,1.35
2018-12-18T05:11:16.370Z,1.37
2018-12-18T05:13:48.618Z,1.29
2018-12-18T05:16:20.860Z,1.32
2018-12-18T05:18:53.064Z,1.38
2018-12-18T05:21:25.312Z,1.49
2018-12-18T05:23:57.548Z,1.55
2018-12-18T05:26:29.791Z,1.62
2018-12-18T05:29:02.026Z,1.65
2018-12-18T05:31:34.270Z,1.65
2018-12-18T05:34:06.568Z,1.69
2018-12-18T05:36:38.812Z,1.70
2018-12-18T05:39:11.080Z,1.64
2018-12-18T05:41:43.318Z,1.49
2018-12-18T05:44:15.566Z,1.55
2018-12-18T05:46:47.814Z,1.45
2018-12-18T05:49:20.055Z,1.47
2018-12-18T05:51:52.320Z,1.50
2018-12-18T05:54:24.533Z,1.53
2018-12-18T05:56:56.811Z,1.51
2018-12-18T05:59:28.999Z,1.50
2018-12-18T06:02:01.268Z,1.45
2018-12-18T06:04:33.516Z,1.48
2018-12-18T06:07:05.751Z,1.53
2018-12-18T06:09:37.987Z,1.54
2018-12-18T06:12:10.248Z,1.43
2018-12-18T06:14:42.476Z,1.41
2018-12-18T06:17:14.747Z,1.46
2018-12-18T06:19:46.961Z,1.32
2018-12-18T06:22:19.205Z,1.35
2018-12-18T06:24:51.517Z,1.33
2018-12-18T06:27:23.712Z,1.30
2018-12-18T06:29:55.948Z,1.32
2018-12-18T06:32:28.184Z,1.23
2018-12-18T06:35:00.442Z,1.25
2018-12-18T06:37:32.640Z,1.26
2018-12-18T06:40:05.448Z,1.29
2018-12-18T06:42:37.731Z,1.08
2018-12-18T06:45:10.011Z,0.99
2018-12-18T06:47:42.228Z,1.06
2018-12-18T06:50:14.485Z,0.98
2018-12-18T06:52:46.696Z,0.99
2018-12-18T06:55:19.000Z,0.98
2018-12-18T06:57:51.230Z,1.13
2018-12-18T07:00:23.575Z,1.21
2018-12-18T07:02:55.781Z,1.09
2018-12-18T07:05:28.046Z,1.04
2018-12-18T07:08:00.268Z,1.05
2018-12-18T07:10:32.552Z,1.13
2018-12-18T07:13:04.845Z,1.09
2018-12-18T07:15:37.134Z,1.07
2018-12-18T07:18:09.347Z,1.21
2018-12-18T07:20:41.576Z,1.12
2018-12-18T07:23:13.812Z,1.05
2018-12-18T07:25:46.040Z,1.01
2018-12-18T07:28:18.294Z,0.89
2018-12-18T07:30:50.797Z,0.86
2018-12-18T07:33:23.030Z,1.00
2018-12-18T07:35:55.417Z,1.05
2018-12-18T07:38:27.662Z,1.07
2018-12-18T07:40:59.872Z,1.00
2018-12-18T07:43:32.099Z,1.17
2018-12-18T07:46:04.364Z,1.19
2018-12-18T07:48:36.815Z,1.17
2018-12-18T07:51:09.055Z,1.13
2018-12-18T07:53:41.339Z,1.02
2018-12-18T07:56:13.573Z,0.90
2018-12-18T07:58:45.804Z,0.93
2018-12-18T08:01:18.049Z,1.01
2018-12-18T08:03:50.348Z,1.16
2018-12-18T08:06:22.563Z,1.20
2018-12-18T08:08:54.790Z,1.21
2018-12-18T08:11:26.996Z,1.26
2018-12-18T08:13:59.283Z,1.27
2018-12-18T08:16:31.528Z,1.36
2018-12-18T08:19:03.753Z,1.34
2018-12-18T08:21:36.000Z,1.37
2018-12-18T08:24:08.227Z,1.40
2018-12-18T08:26:40.436Z,1.45
2018-12-18T08:29:12.676Z,1.46
2018-12-18T08:31:44.899Z,1.55
2018-12-18T08:34:17.141Z,1.63
2018-12-18T08:36:49.443Z,1.63
2018-12-18T08:39:21.714Z,1.56
2018-12-18T08:41:54.093Z,1.61
2018-12-18T08:44:26.389Z,1.66
2018-12-18T08:46:58.608Z,1.57
2018-12-18T08:49:30.896Z,1.62
2018-12-18T08:52:03.137Z,1.60
2018-12-18T08:54:35.408Z,1.77
2018-12-18T08:57:07.616Z,1.70
2018-12-18T08:59:39.887Z,1.70
2018-12-18T09:02:12.138Z,1.78
2018-12-18T09:04:44.415Z,1.83
2018-12-18T09:07:16.656Z,1.88
2018-12-18T09:09:48.972Z,1.90
2018-12-18T09:12:21.204Z,1.94
2018-12-18T09:14:56.277Z,2.03
2018-12-18T09:17:34.233Z,2.01
2018-12-18T09:20:06.604Z,1.94
2018-12-18T09:22:38.872Z,1.89
2018-12-18T09:25:11.116Z,1.89
2018-12-18T09:27:43.379Z,1.99
2018-12-18T09:30:15.658Z,2.02
2018-12-18T09:32:47.863Z,2.17
2018-12-18T09:35:20.256Z,2.28
2018-12-18T09:37:58.259Z,2.43
2018-12-18T09:40:35.068Z,2.45
2018-12-18T09:43:13.067Z,2.54
2018-12-18T09:45:45.309Z,2.54
2018-12-18T09:48:17.578Z,2.60
2018-12-18T09:50:49.834Z,2.73
2018-12-18T09:53:22.096Z,2.83
2018-12-18T09:55:54.419Z,2.86
2018-12-18T09:58:26.703Z,2.88
2018-12-18T10:00:59.008Z,2.99
2018-12-18T10:03:33.644Z,3.02
2018-12-18T10:06:05.580Z,3.07
2018-12-18T10:08:37.869Z,3.08
2018-12-18T10:11:10.126Z,3.21
2018-12-18T10:13:42.408Z,3.27
2018-12-18T10:16:14.711Z,3.43
2018-12-18T10:18:47.055Z,3.49
2018-12-18T10:21:19.341Z,3.61
2018-12-18T10:23:51.608Z,3.81
2018-12-18T10:26:24.001Z,4.02
2018-12-18T10:28:56.292Z,4.03
2018-12-18T10:31:28.512Z,4.11
2018-12-18T10:34:00.766Z,4.25
2018-12-18T10:36:33.045Z,4.42
2018-12-18T10:39:06.503Z,4.62
2018-12-18T10:41:38.752Z,4.66
2018-12-18T10:44:11.009Z,4.73
2018-12-18T10:46:43.252Z,4.64
2018-12-18T10:49:15.513Z,4.65
2018-12-18T10:51:47.744Z,4.56
2018-12-18T10:54:20.027Z,4.57
2018-12-18T10:56:52.363Z,4.64
2018-12-18T10:59:24.652Z,4.71
2018-12-18T11:01:57.068Z,4.77
2018-12-18T11:04:29.344Z,4.81
2018-12-18T11:07:01.585Z,4.91
2018-12-18T11:09:33.870Z,5.24
2018-12-18T11:12:06.115Z,5.35
2018-12-18T11:14:38.369Z,5.32
2018-12-18T11:17:10.668Z,5.34
2018-12-18T11:19:42.951Z,5.45
2018-12-18T11:22:15.176Z,5.55
2018-12-18T11:24:47.434Z,5.59
2018-12-18T11:27:19.726Z,5.76
2018-12-18T11:29:52.044Z,5.76
2018-12-18T11:32:24.280Z,5.75
2018-12-18T11:34:56.532Z,5.87
2018-12-18T11:37:28.789Z,6.10
2018-12-18T11:40:01.041Z,5.98
2018-12-18T11:42:33.275Z,5.88
2018-12-18T11:45:05.841Z,5.99
2018-12-18T11:47:38.109Z,6.15
2018-12-18T11:50:10.339Z,6.10
2018-12-18T11:52:42.612Z,6.40
2018-12-18T11:55:14.853Z,6.48
2018-12-18T11:57:47.121Z,6.53
2018-12-18T12:00:19.504Z,6.65
2018-12-18T12:02:51.766Z,6.76
2018-12-18T12:05:24.114Z,6.84
2018-12-18T12:07:56.365Z,6.83
2018-12-18T12:10:28.737Z,6.96
2018-12-18T12:13:01.063Z,7.00
2018-12-18T12:15:33.313Z,6.99
2018-12-18T12:18:05.573Z,7.04
2018-12-18T12:20:44.587Z,7.10
2018-12-18T12:23:16.864Z,7.16
2018-12-18T12:25:49.207Z,7.07
2018-12-18T12:28:21.475Z,7.04
2018-12-18T12:30:53.740Z,7.07
2018-12-18T12:33:26.028Z,7.11
2018-12-18T12:35:58.273Z,7.11
2018-12-18T12:38:30.639Z,7.10
2018-12-18T12:41:02.954Z,7.05
2018-12-18T12:43:35.247Z,7.04
2018-12-18T12:46:07.464Z,6.94
2018-12-18T12:48:45.377Z,7.09
2018-12-18T12:51:17.624Z,7.08
2018-12-18T12:53:49.910Z,6.88
2018-12-18T12:56:22.292Z,6.73
2018-12-18T12:58:54.556Z,6.81
2018-12-18T13:01:26.810Z,6.96
2018-12-18T13:03:59.047Z,6.96
2018-12-18T13:06:36.440Z,6.80
2018-12-18T13:09:07.650Z,6.86
2018-12-18T13:11:39.975Z,6.91
2018-12-18T13:14:12.223Z,6.90
2018-12-18T13:16:44.494Z,6.89
2018-12-18T13:19:16.761Z,6.80
2018-12-18T13:21:49.074Z,6.81
2018-12-18T13:24:21.296Z,6.74
2018-12-18T13:26:53.715Z,6.66
2018-12-18T13:29:26.186Z,6.65
2018-12-18T13:31:58.613Z,6.62
2018-12-18T13:34:30.848Z,6.70
2018-12-18T13:37:03.149Z,6.58
2018-12-18T13:39:35.408Z,6.59
2018-12-18T13:42:07.709Z,6.45
2018-12-18T13:44:39.977Z,6.41
2018-12-18T13:47:12.320Z,6.31
2018-12-18T13:49:44.577Z,6.37
2018-12-18T13:52:16.992Z,6.38
2018-12-18T13:54:49.228Z,6.40
2018-12-18T13:57:21.487Z,6.41
2018-12-18T13:59:53.804Z,6.32
2018-12-18T14:02:26.079Z,6.39
2018-12-18T14:04:58.315Z,6.21
2018-12-18T14:07:30.577Z,6.25
2018-12-18T14:10:03.401Z,6.15
2018-12-18T14:12:35.647Z,6.20
2018-12-18T14:15:08.135Z,6.36
2018-12-18T14:17:40.397Z,6.41
2018-12-18T14:20:12.620Z,6.50
2018-12-18T14:22:44.888Z,6.44
2018-12-18T14:25:17.118Z,6.25
2018-12-18T14:27:49.519Z,6.15
2018-12-18T14:30:21.851Z,6.23
2018-12-18T14:32:54.121Z,6.14
2018-12-18T14:35:26.392Z,6.06
2018-12-18T14:37:58.708Z,6.08
2018-12-18T14:40:30.926Z,6.02
2018-12-18T14:43:03.220Z,5.97
2018-12-18T14:45:35.475Z,5.87
2018-12-18T14:48:07.771Z,5.82
2018-12-18T14:50:40.004Z,5.85
2018-12-18T14:53:12.273Z,5.80
2018-12-18T14:55:44.510Z,5.75
2018-12-18T14:58:16.758Z,5.66
2018-12-18T15:00:49.012Z,5.63
2018-12-18T15:03:21.250Z,5.55
2018-12-18T15:05:53.558Z,5.50
2018-12-18T15:08:25.803Z,5.48
2018-12-18T15:10:58.100Z,5.31
2018-12-18T15:13:30.547Z,5.23
2018-12-18T15:16:02.841Z,5.10
2018-12-18T15:18:35.096Z,5.00
2018-12-18T15:21:07.537Z,4.90
2018-12-18T15:23:39.756Z,4.83
2018-12-18T15:26:12.028Z,4.75
2018-12-18T15:28:44.272Z,4.63
2018-12-18T15:31:16.622Z,4.55
2018-12-18T15:33:49.054Z,4.48
2018-12-18T15:36:21.388Z,4.51
2018-12-18T15:38:53.674Z,4.40
2018-12-18T15:41:26.002Z,4.35
2018-12-18T15:43:58.371Z,4.32
2018-12-18T15:46:30.680Z,4.35
2018-12-18T15:49:03.061Z,4.19
2018-12-18T15:51:35.388Z,4.19
2018-12-18T15:54:07.712Z,4.06
2018-12-18T15:56:39.981Z,3.99
2018-12-18T15:59:12.255Z,3.95
2018-12-18T16:01:44.530Z,3.84
2018-12-18T16:04:16.763Z,3.72
2018-12-18T16:06:49.069Z,3.61
2018-12-18T16:09:21.319Z,3.52
2018-12-18T16:11:55.035Z,3.45
2018-12-18T16:14:27.509Z,3.35
2018-12-18T16:16:59.785Z,3.27
2018-12-18T16:19:32.432Z,3.13
2018-12-18T16:22:04.908Z,3.12
2018-12-18T16:24:37.165Z,3.02
2018-12-18T16:27:09.576Z,2.99
2018-12-18T16:29:41.851Z,2.93
2018-12-18T16:32:14.147Z,2.89
2018-12-18T16:34:46.467Z,2.88
2018-12-18T16:37:22.911Z,2.79
2018-12-18T16:39:53.057Z,2.67
2018-12-18T16:42:25.376Z,2.63
2018-12-18T16:44:57.707Z,2.62
2018-12-18T16:47:30.004Z,2.76
2018-12-18T16:50:02.475Z,2.63
2018-12-18T16:52:34.770Z,2.59
2018-12-18T16:55:07.135Z,2.53
2018-12-18T16:57:39.998Z,2.51
2018-12-18T17:00:12.313Z,2.46
2018-12-18T17:02:45.031Z,2.41
2018-12-18T17:05:17.690Z,2.36
2018-12-18T17:07:50.047Z,2.20
2018-12-18T17:10:22.371Z,2.18
2018-12-18T17:12:55.671Z,2.08
2018-12-18T17:15:27.993Z,2.08
2018-12-18T17:18:00.275Z,2.00
2018-12-18T17:20:32.564Z,2.00
2018-12-18T17:23:04.848Z,1.95
2018-12-18T17:25:37.269Z,1.93
2018-12-18T17:28:09.746Z,1.90
2018-12-18T17:30:42.046Z,1.75
2018-12-18T17:33:14.339Z,1.73
2018-12-18T17:35:46.777Z,1.60
2018-12-18T17:38:19.045Z,1.60
2018-12-18T17:40:51.617Z,1.67
2018-12-18T17:43:24.491Z,1.62
2018-12-18T17:45:56.824Z,1.56
2018-12-18T17:48:29.116Z,1.57
2018-12-18T17:51:01.452Z,1.58
2018-12-18T17:53:33.747Z,1.61
2018-12-18T17:56:06.112Z,1.54
2018-12-18T17:58:38.404Z,1.46
2018-12-18T18:01:10.885Z,1.48
2018-12-18T18:03:43.191Z,1.50
2018-12-18T18:06:15.516Z,1.53
2018-12-18T18:08:47.894Z,1.52
2018-12-18T18:11:20.236Z,1.51
2018-12-18T18:13:52.576Z,1.45
2018-12-18T18:16:24.999Z,1.47
2018-12-18T18:18:57.324Z,1.48
2018-12-18T18:21:29.676Z,1.49
2018-12-18T18:24:01.989Z,1.57
2018-12-18T18:26:34.353Z,1.55
2018-12-18T18:29:06.854Z,1.55
2018-12-18T18:31:39.143Z,1.47
2018-12-18T18:34:12.594Z,1.41
2018-12-18T18:36:45.171Z,1.34
2018-12-18T18:39:17.530Z,1.33
2018-12-18T18:41:49.834Z,1.34
2018-12-18T18:44:22.301Z,1.34
2018-12-18T18:46:54.664Z,1.30
2018-12-18T18:49:27.090Z,1.23
2018-12-18T18:51:59.425Z,1.22
2018-12-18T18:54:31.745Z,1.20
2018-12-18T18:57:04.028Z,1.11
2018-12-18T18:59:36.445Z,0.98
2018-12-18T19:02:08.777Z,1.02
2018-12-18T19:04:41.148Z,0.94
2018-12-18T19:07:13.434Z,0.95
2018-12-18T19:09:45.729Z,0.99
2018-12-18T19:12:18.049Z,1.03
2018-12-18T19:14:50.451Z,1.08
2018-12-18T19:17:22.873Z,1.08
2018-12-18T19:19:55.274Z,0.95
2018-12-18T19:22:27.618Z,1.08
2018-12-18T19:25:00.062Z,1.11
2018-12-18T19:27:32.345Z,1.16
2018-12-18T19:30:04.934Z,1.03
2018-12-18T19:32:37.318Z,0.98
2018-12-18T19:35:09.738Z,1.08
2018-12-18T19:37:42.108Z,1.16
2018-12-18T19:40:14.549Z,1.29
2018-12-18T19:42:46.929Z,1.31
2018-12-18T19:45:19.371Z,1.32
2018-12-18T19:47:51.788Z,1.55
2018-12-18T19:50:24.217Z,1.64
2018-12-18T19:52:56.551Z,1.65
2018-12-18T19:55:28.931Z,1.66
2018-12-18T19:58:01.256Z,1.78
2018-12-18T20:00:33.663Z,1.82
2018-12-18T20:03:06.123Z,1.61
2018-12-18T20:05:38.490Z,1.60
2018-12-18T20:08:10.991Z,1.50
2018-12-18T20:10:43.350Z,1.38
2018-12-18T20:13:15.909Z,1.30
2018-12-18T20:15:48.319Z,1.19
2018-12-18T20:18:20.856Z,1.16
2018-12-18T20:20:53.174Z,1.09
2018-12-18T20:23:25.590Z,1.02
2018-12-18T20:25:58.185Z,1.01
2018-12-18T20:28:30.626Z,1.00
2018-12-18T20:31:03.054Z,1.02
2018-12-18T20:33:35.412Z,1.00
2018-12-18T20:36:07.733Z,1.00
2018-12-18T20:38:40.095Z,1.02
2018-12-18T20:41:12.540Z,1.02
2018-12-18T20:43:44.893Z,0.85
2018-12-18T20:46:17.443Z,0.98
2018-12-18T20:48:50.362Z,0.92
2018-12-18T20:51:22.720Z,1.02
2018-12-18T20:53:55.164Z,0.91
2018-12-18T20:56:27.621Z,0.89
2018-12-18T20:58:59.993Z,0.93
2018-12-18T21:01:32.355Z,0.86
2018-12-18T21:04:04.762Z,0.88
2018-12-18T21:06:37.065Z,0.84
2018-12-18T21:09:09.731Z,0.76
2018-12-18T21:11:42.067Z,0.76
2018-12-18T21:14:14.352Z,0.82
2018-12-18T21:16:47.546Z,0.93
2018-12-18T21:19:19.873Z,0.94
2018-12-18T21:21:52.256Z,1.02
2018-12-18T21:24:24.541Z,0.96
2018-12-18T21:26:56.811Z,1.00
2018-12-18T21:29:29.097Z,1.00
2018-12-18T21:32:01.369Z,1.08
2018-12-18T21:34:33.639Z,1.16
2018-12-18T21:37:06.012Z,1.12
2018-12-18T21:39:38.290Z,1.10
2018-12-18T21:42:10.553Z,1.11
2018-12-18T21:44:43.909Z,1.12
2018-12-18T21:47:16.271Z,1.07
2018-12-18T21:49:48.709Z,1.06
2018-12-18T21:52:21.000Z,1.10
2018-12-18T21:54:53.258Z,1.17
2018-12-18T21:57:25.612Z,1.18
2018-12-18T21:59:57.932Z,1.21
2018-12-18T22:02:30.274Z,1.18
2018-12-18T22:05:02.615Z,1.12
2018-12-18T22:07:34.947Z,1.26
2018-12-18T22:10:07.770Z,1.30
2018-12-18T22:12:40.049Z,1.34
2018-12-18T22:15:12.444Z,1.34
2018-12-18T22:17:44.684Z,1.44
2018-12-18T22:20:16.911Z,1.51
2018-12-18T22:22:49.238Z,1.58
2018-12-18T22:25:21.596Z,1.58
2018-12-18T22:27:54.320Z,1.74
2018-12-18T22:30:26.627Z,1.73
2018-12-18T22:32:58.885Z,1.69
2018-12-18T22:35:31.136Z,1.69
2018-12-18T22:38:03.516Z,1.56
2018-12-18T22:40:35.875Z,1.56
2018-12-18T22:43:08.188Z,1.55
2018-12-18T22:45:40.444Z,1.56
2018-12-18T22:48:12.714Z,1.65
2018-12-18T22:50:45.175Z,1.42
2018-12-18T22:53:17.463Z,1.33
2018-12-18T22:55:49.757Z,1.27
2018-12-18T22:58:22.040Z,1.20
2018-12-18T23:00:59.948Z,1.20
2018-12-18T23:03:32.200Z,1.15
2018-12-18T23:06:04.565Z,1.12
2018-12-18T23:08:36.844Z,1.28
2018-12-18T23:11:09.202Z,1.30
2018-12-18T23:13:41.479Z,1.61
2018-12-18T23:16:13.729Z,1.34
2018-12-18T23:18:45.940Z,1.02
2018-12-18T23:21:18.241Z,0.81
2018-12-18T23:23:50.487Z,0.74
2018-12-18T23:26:22.784Z,0.70
2018-12-18T23:28:55.100Z,0.75
2018-12-18T23:31:27.351Z,0.82
2018-12-18T23:33:59.588Z,0.96
2018-12-18T23:36:31.975Z,1.05
2018-12-18T23:39:06.923Z,1.22
2018-12-18T23:41:39.201Z,1.29
2018-12-18T23:44:11.727Z,1.20
2018-12-18T23:46:44.052Z,1.21
2018-12-18T23:49:16.319Z,1.20
2018-12-18T23:51:48.632Z,1.01
2018-12-18T23:54:20.926Z,0.90
2018-12-18T23:56:53.219Z,0.83
2018-12-18T23:59:25.455Z,0.74
